createdAt,value
2023-03-04T00:05:43.042Z,2.45
2023-03-04T00:15:47.673Z,2.31
2023-03-04T00:25:50.779Z,2.38
2023-03-04T00:35:55.638Z,2.47
2023-03-04T00:45:58.548Z,2.52
2023-03-04T00:56:03.132Z,2.55
2023-03-04T01:06:08.703Z,2.54
2023-03-04T01:16:13.259Z,2.56
2023-03-04T01:26:18.332Z,2.56
2023-03-04T01:36:24.808Z,2.55
2023-03-04T01:46:29.888Z,2.58
2023-03-04T01:56:38.856Z,2.57
2023-03-04T02:06:44.278Z,2.64
2023-03-04T02:16:49.733Z,2.65
2023-03-04T02:26:54.284Z,2.71
2023-03-04T02:36:58.685Z,2.66
2023-03-04T02:47:06.732Z,2.68
2023-03-04T02:57:12.449Z,2.68
2023-03-04T03:07:20.072Z,2.74
2023-03-04T03:17:27.517Z,2.77
2023-03-04T03:27:32.731Z,2.75
2023-03-04T03:37:37.501Z,2.83
2023-03-04T03:47:41.788Z,2.86
2023-03-04T03:57:45.914Z,2.82
2023-03-04T04:07:53.013Z,2.90
2023-03-04T04:18:00.425Z,2.90
2023-03-04T04:28:24.881Z,2.93
2023-03-04T04:38:28.429Z,2.84
2023-03-04T04:48:36.258Z,2.93
2023-03-04T04:58:40.149Z,3.02
2023-03-04T05:08:44.525Z,3.02
2023-03-04T05:18:49.601Z,3.07
2023-03-04T05:28:54.548Z,3.09
2023-03-04T05:38:59.180Z,3.15
2023-03-04T05:49:03.899Z,3.16
2023-03-04T05:59:06.908Z,3.23
2023-03-04T06:09:16.886Z,3.26
2023-03-04T06:19:21.722Z,3.28
2023-03-04T06:39:56.345Z,3.31
2023-03-04T06:50:03.286Z,3.35
2023-03-04T07:00:07.721Z,3.37
2023-03-04T07:10:13.093Z,3.36
2023-03-04T07:20:16.208Z,3.42
2023-03-04T07:30:23.133Z,3.58
2023-03-04T07:40:26.296Z,3.54
2023-03-04T07:50:31.235Z,3.55
2023-03-04T08:00:34.453Z,3.54
2023-03-04T08:10:40.038Z,3.59
2023-03-04T08:31:11.155Z,3.70
2023-03-04T08:41:16.877Z,3.81
2023-03-04T08:51:22.066Z,3.84
2023-03-04T09:01:25.354Z,3.91
2023-03-04T09:11:29.815Z,3.96
2023-03-04T09:21:32.877Z,3.96
2023-03-04T09:31:37.280Z,4.04
2023-03-04T09:41:44.348Z,4.16
2023-03-04T09:51:58.061Z,4.28
2023-03-04T10:02:04.369Z,4.47
2023-03-04T10:12:14.492Z,4.59
2023-03-04T10:22:23.081Z,5.05
2023-03-04T10:32:27.167Z,5.39
2023-03-04T10:42:38.010Z,5.30
2023-03-04T10:52:50.464Z,5.15
2023-03-04T11:02:53.562Z,5.14
2023-03-04T11:13:02.379Z,5.42
2023-03-04T11:23:11.581Z,5.38
2023-03-04T11:33:24.541Z,5.35
2023-03-04T11:43:35.440Z,5.63
2023-03-04T11:53:49.101Z,5.72
2023-03-04T12:04:27.679Z,5.84
2023-03-04T12:14:42.402Z,5.92
2023-03-04T12:25:04.184Z,5.95
2023-03-04T12:35:25.449Z,5.92
2023-03-04T12:45:34.102Z,5.87
2023-03-04T12:55:41.336Z,5.92
2023-03-04T13:06:04.385Z,6.04
2023-03-04T13:16:33.294Z,6.14
2023-03-04T13:26:37.680Z,6.17
2023-03-04T13:37:01.061Z,6.17
2023-03-04T13:47:11.538Z,6.18
2023-03-04T13:57:21.315Z,6.21
2023-03-04T14:07:27.277Z,6.23
2023-03-04T14:17:37.216Z,6.15
2023-03-04T14:27:40.516Z,6.20
2023-03-04T14:48:23.716Z,6.17
2023-03-04T14:58:30.278Z,6.10
2023-03-04T15:08:37.077Z,6.08
2023-03-04T15:18:56.507Z,6.08
2023-03-04T15:29:01.047Z,6.13
2023-03-04T15:39:05.981Z,6.14
2023-03-04T15:49:10.171Z,6.11
2023-03-04T15:59:16.819Z,6.09
2023-03-04T16:09:22.104Z,6.14
2023-03-04T16:19:30.579Z,6.11
2023-03-04T16:29:34.238Z,6.05
2023-03-04T16:39:41.669Z,6.06
2023-03-04T16:49:44.291Z,5.97
2023-03-04T16:59:49.135Z,5.92
2023-03-04T17:09:52.513Z,5.94
2023-03-04T17:19:57.457Z,5.95
2023-03-04T17:30:01.284Z,5.86
2023-03-04T17:40:09.226Z,5.82
2023-03-04T17:50:13.824Z,5.81
2023-03-04T18:00:21.000Z,5.73
2023-03-04T18:10:23.866Z,5.66
2023-03-04T18:20:28.346Z,6.02
2023-03-04T18:30:31.040Z,5.93
2023-03-04T18:40:35.464Z,5.80
2023-03-04T18:50:39.163Z,5.83
2023-03-04T19:00:44.159Z,5.85
2023-03-04T19:10:48.210Z,5.79
2023-03-04T19:20:54.085Z,5.79
2023-03-04T19:30:59.477Z,5.77
2023-03-04T19:41:11.656Z,5.83
2023-03-04T19:51:16.064Z,5.83
2023-03-04T20:01:28.258Z,5.77
2023-03-04T20:11:32.274Z,5.79
2023-03-04T20:21:37.340Z,5.79
2023-03-04T20:31:41.871Z,5.68
2023-03-04T20:41:46.553Z,5.84
2023-03-04T20:51:50.567Z,5.75
2023-03-04T21:01:55.617Z,5.70
2023-03-04T21:12:01.482Z,5.61
2023-03-04T21:22:06.288Z,5.64
2023-03-04T21:32:23.722Z,5.64
2023-03-04T21:42:30.352Z,5.62
2023-03-04T21:52:34.014Z,5.59
2023-03-04T22:02:38.902Z,5.60
2023-03-04T22:12:42.098Z,5.58
2023-03-04T22:22:47.101Z,5.60
2023-03-04T22:32:51.215Z,5.65
2023-03-04T22:42:57.286Z,5.54
2023-03-04T22:53:02.129Z,5.60
2023-03-04T23:03:08.497Z,5.56
2023-03-04T23:13:35.118Z,5.40
2023-03-04T23:34:06.932Z,5.33
2023-03-04T23:44:12.329Z,5.42
2023-03-04T23:54:16.435Z,5.40
